createdAt,value
2022-09-28T00:01:35.755Z,98369.21
2022-09-28T00:06:39.245Z,98364.32
2022-09-28T00:11:43.721Z,98360.08
2022-09-28T00:16:47.019Z,98353.88
2022-09-28T00:21:49.841Z,98348.89
2022-09-28T00:26:55.098Z,98341.21
2022-09-28T00:32:03.925Z,98339.08
2022-09-28T00:37:09.060Z,98338.77
2022-09-28T00:42:19.393Z,98333.48
2022-09-28T00:47:43.823Z,98329.45
2022-09-28T00:53:24.527Z,98321.36
2022-09-28T00:58:32.500Z,98323.48
2022-09-28T01:03:35.282Z,98321.91
2022-09-28T01:08:40.176Z,98322.13
2022-09-28T01:13:44.090Z,98316.17
2022-09-28T01:19:05.644Z,98313.21
2022-09-28T01:24:36.032Z,98309.33
2022-09-28T01:29:48.309Z,98300.97
2022-09-28T01:35:31.342Z,98300.70
2022-09-28T01:40:36.184Z,98298.94
2022-09-28T01:45:44.325Z,98299.40
2022-09-28T01:50:53.801Z,98299.60
2022-09-28T01:56:05.838Z,98292.48
2022-09-28T02:01:15.277Z,98292.14
2022-09-28T02:06:46.100Z,98290.21
2022-09-28T02:11:56.324Z,98291.58
2022-09-28T02:16:59.172Z,98295.33
2022-09-28T02:22:37.501Z,98294.52
2022-09-28T02:27:54.237Z,98299.91
2022-09-28T02:33:03.603Z,98309.24
2022-09-28T02:38:06.327Z,98312.83
2022-09-28T02:43:16.441Z,98316.33
2022-09-28T02:49:22.754Z,98311.55
2022-09-28T02:54:44.298Z,98312.46
2022-09-28T02:59:47.032Z,98314.59
2022-09-28T03:05:11.942Z,98315.20
2022-09-28T03:10:50.069Z,98316.02
2022-09-28T03:15:52.882Z,98313.40
2022-09-28T03:20:55.804Z,98310.71
2022-09-28T03:25:59.082Z,98310.98
2022-09-28T03:31:02.839Z,98312.54
2022-09-28T03:36:06.048Z,98313.94
2022-09-28T03:41:09.641Z,98310.02
2022-09-28T03:46:12.466Z,98310.40
2022-09-28T03:51:15.258Z,98313.02
2022-09-28T03:56:18.252Z,98309.40
2022-09-28T04:01:21.043Z,98303.76
2022-09-28T04:06:25.233Z,98297.80
2022-09-28T04:11:34.929Z,98298.63
2022-09-28T04:16:48.197Z,98299.52
2022-09-28T04:21:52.012Z,98300.75
2022-09-28T04:27:14.700Z,98297.54
2022-09-28T04:32:17.540Z,98295.02
2022-09-28T04:37:20.425Z,98291.69
2022-09-28T04:42:23.552Z,98289.66
2022-09-28T04:47:26.643Z,98286.86
2022-09-28T04:52:29.425Z,98288.89
2022-09-28T04:57:34.846Z,98285.38
2022-09-28T05:02:37.774Z,98283.23
2022-09-28T05:07:41.938Z,98278.70
2022-09-28T05:12:44.711Z,98277.17
2022-09-28T05:17:47.451Z,98272.16
2022-09-28T05:22:50.199Z,98275.82
2022-09-28T05:27:57.124Z,98269.39
2022-09-28T05:33:00.797Z,98263.81
2022-09-28T05:38:05.747Z,98259.20
2022-09-28T05:43:08.479Z,98266.98
2022-09-28T05:48:11.354Z,98270.92
2022-09-28T05:53:14.742Z,98272.02
2022-09-28T05:58:17.602Z,98270.85
2022-09-28T06:03:20.660Z,98271.63
2022-09-28T06:08:23.724Z,98272.04
2022-09-28T06:13:27.921Z,98273.41
2022-09-28T06:18:30.665Z,98263.79
2022-09-28T06:23:33.964Z,98259.55
2022-09-28T06:28:37.639Z,98256.36
2022-09-28T06:33:42.156Z,98258.41
2022-09-28T06:38:45.461Z,98247.73
2022-09-28T06:43:51.318Z,98254.30
2022-09-28T06:48:54.271Z,98260.04
2022-09-28T06:54:01.613Z,98253.13
2022-09-28T06:59:08.078Z,98253.45
2022-09-28T07:04:10.946Z,98253.11
2022-09-28T07:09:29.514Z,98243.98
2022-09-28T07:14:47.302Z,98246.65
2022-09-28T07:20:10.468Z,98256.14
2022-09-28T07:25:17.237Z,98251.89
2022-09-28T07:30:20.741Z,98250.23
2022-09-28T07:35:24.590Z,98252.44
2022-09-28T07:40:48.452Z,98258.80
2022-09-28T07:45:54.125Z,98267.70
2022-09-28T07:51:00.198Z,98265.36
2022-09-28T07:56:10.043Z,98267.50
2022-09-28T08:01:17.769Z,98274.69
2022-09-28T08:06:20.568Z,98273.05
2022-09-28T08:11:23.623Z,98278.05
2022-09-28T08:16:27.769Z,98283.73
2022-09-28T08:21:46.332Z,98280.23
2022-09-28T08:26:49.603Z,98278.88
2022-09-28T08:31:52.446Z,98276.73
2022-09-28T08:36:59.301Z,98272.72
2022-09-28T08:42:28.080Z,98274.08
2022-09-28T08:48:07.374Z,98271.77
2022-09-28T08:53:41.018Z,98275.94
2022-09-28T08:58:49.169Z,98285.11
2022-09-28T09:03:52.527Z,98285.36
2022-09-28T09:09:23.983Z,98276.25
2022-09-28T09:15:10.466Z,98283.15
2022-09-28T09:20:25.622Z,98286.42
2022-09-28T09:25:47.568Z,98293.17
2022-09-28T09:30:57.087Z,98305.41
2022-09-28T09:36:22.095Z,98315.48
2022-09-28T09:41:52.585Z,98312.98
2022-09-28T09:47:34.010Z,98308.22
2022-09-28T09:52:58.999Z,98314.59
2022-09-28T09:58:12.286Z,98314.00
2022-09-28T10:03:30.640Z,98315.35
2022-09-28T10:08:40.861Z,98318.11
2022-09-28T10:13:44.745Z,98323.34
2022-09-28T10:18:49.729Z,98327.01
2022-09-28T10:24:02.884Z,98324.41
2022-09-28T10:29:15.004Z,98334.88
2022-09-28T10:34:26.563Z,98332.71
2022-09-28T10:39:51.168Z,98333.95
2022-09-28T10:45:20.184Z,98338.88
2022-09-28T10:50:25.737Z,98341.45
2022-09-28T10:55:33.604Z,98337.75
2022-09-28T11:00:42.731Z,98341.02
2022-09-28T11:05:54.842Z,98340.00
2022-09-28T11:11:11.976Z,98346.36
2022-09-28T11:16:29.184Z,98355.59
2022-09-28T11:21:42.695Z,98365.76
2022-09-28T11:26:52.963Z,98374.11
2022-09-28T11:32:04.960Z,98374.92
2022-09-28T11:37:23.479Z,98370.76
2022-09-28T11:42:57.521Z,98370.46
2022-09-28T11:48:07.991Z,98368.85
2022-09-28T11:53:31.222Z,98363.57
2022-09-28T11:58:51.570Z,98361.16
2022-09-28T12:04:02.581Z,98359.61
2022-09-28T12:09:22.545Z,98361.92
2022-09-28T12:14:30.956Z,98363.69
2022-09-28T12:19:58.013Z,98364.46
2022-09-28T12:25:03.908Z,98366.56
2022-09-28T12:30:19.883Z,98366.11
2022-09-28T12:35:25.984Z,98366.66
2022-09-28T12:40:53.663Z,98368.38
2022-09-28T12:46:28.187Z,98367.41
2022-09-28T12:51:58.156Z,98373.11
2022-09-28T12:57:16.140Z,98374.17
2022-09-28T13:02:51.364Z,98374.12
2022-09-28T13:07:56.899Z,98376.15
2022-09-28T13:13:45.182Z,98383.52
2022-09-28T13:19:03.130Z,98383.30
2022-09-28T13:24:31.111Z,98384.08
2022-09-28T13:29:36.978Z,98383.57
2022-09-28T13:34:40.155Z,98386.14
2022-09-28T13:39:45.937Z,98385.19
2022-09-28T13:45:15.639Z,98393.02
2022-09-28T13:50:56.892Z,98391.98
2022-09-28T13:56:49.189Z,98396.48
2022-09-28T14:02:06.778Z,98393.66
2022-09-28T14:07:16.872Z,98395.70
2022-09-28T14:12:34.218Z,98392.38
2022-09-28T14:17:58.266Z,98395.34
2022-09-28T14:23:10.849Z,98400.27
2022-09-28T14:28:30.849Z,98405.55
2022-09-28T14:33:34.711Z,98406.48
2022-09-28T14:39:06.071Z,98409.64
2022-09-28T14:44:12.765Z,98412.20
2022-09-28T14:49:20.126Z,98415.44
2022-09-28T14:54:27.974Z,98415.67
2022-09-28T14:59:36.504Z,98414.23
2022-09-28T15:04:50.995Z,98421.80
2022-09-28T15:09:58.616Z,98428.05
2022-09-28T15:15:08.700Z,98438.69
2022-09-28T15:20:30.631Z,98436.74
2022-09-28T15:25:35.280Z,98436.30
2022-09-28T15:30:38.849Z,98436.10
2022-09-28T15:35:41.793Z,98438.36
2022-09-28T15:40:46.444Z,98432.54
2022-09-28T15:46:02.714Z,98428.55
2022-09-28T15:51:19.728Z,98434.06
2022-09-28T15:56:22.705Z,98442.77
2022-09-28T16:01:37.453Z,98445.75
2022-09-28T16:06:41.836Z,98445.59
2022-09-28T16:11:44.657Z,98446.08
2022-09-28T16:16:58.160Z,98452.39
2022-09-28T16:22:03.971Z,98450.23
2022-09-28T16:27:40.175Z,98453.17
2022-09-28T16:32:49.917Z,98453.45
2022-09-28T16:38:01.738Z,98459.69
2022-09-28T16:43:08.931Z,98460.60
2022-09-28T16:48:20.339Z,98455.85
2022-09-28T16:53:44.681Z,98457.96
2022-09-28T16:58:49.426Z,98452.38
2022-09-28T17:03:52.426Z,98453.04
2022-09-28T17:08:56.759Z,98453.39
2022-09-28T17:14:00.342Z,98451.38
2022-09-28T17:19:03.187Z,98448.56
2022-09-28T17:24:06.877Z,98448.17
2022-09-28T17:29:14.623Z,98445.50
2022-09-28T17:34:19.972Z,98452.52
2022-09-28T17:39:25.171Z,98452.31
2022-09-28T17:44:28.592Z,98442.84
2022-09-28T17:49:31.441Z,98435.34
2022-09-28T17:54:34.383Z,98435.02
2022-09-28T17:59:44.800Z,98438.22
2022-09-28T18:04:52.152Z,98444.20
2022-09-28T18:09:58.224Z,98448.18
2022-09-28T18:15:01.633Z,98446.81
2022-09-28T18:20:06.908Z,98452.12
2022-09-28T18:25:11.300Z,98446.70
2022-09-28T18:30:14.048Z,98447.58
2022-09-28T18:35:22.036Z,98447.23
2022-09-28T18:40:25.973Z,98444.59
2022-09-28T18:45:29.154Z,98446.39
2022-09-28T18:50:32.892Z,98444.52
2022-09-28T18:55:36.103Z,98446.79
2022-09-28T19:00:42.412Z,98447.36
2022-09-28T19:05:46.833Z,98449.65
2022-09-28T19:10:49.712Z,98452.14
2022-09-28T19:15:52.497Z,98443.55
2022-09-28T19:20:55.238Z,98442.08
2022-09-28T19:26:02.392Z,98436.08
2022-09-28T19:31:17.036Z,98438.42
2022-09-28T19:36:23.747Z,98444.59
2022-09-28T19:41:46.011Z,98451.69
2022-09-28T19:46:56.134Z,98462.68
2022-09-28T19:52:12.798Z,98465.79
2022-09-28T19:57:19.935Z,98473.66
2022-09-28T20:02:22.804Z,98473.88
2022-09-28T20:07:25.650Z,98476.27
2022-09-28T20:12:28.434Z,98483.91
2022-09-28T20:17:31.464Z,98488.25
2022-09-28T20:22:34.579Z,98490.98
2022-09-28T20:27:39.244Z,98496.76
2022-09-28T20:32:44.189Z,98504.19
2022-09-28T20:37:51.075Z,98505.55
2022-09-28T20:42:53.805Z,98511.50
2022-09-28T20:47:56.535Z,98510.77
2022-09-28T20:53:00.375Z,98513.98
2022-09-28T20:58:04.275Z,98509.67
2022-09-28T21:03:08.670Z,98499.12
2022-09-28T21:08:11.634Z,98502.23
2022-09-28T21:13:14.534Z,98502.20
2022-09-28T21:18:18.751Z,98500.41
2022-09-28T21:23:24.943Z,98503.89
2022-09-28T21:28:29.891Z,98506.39
2022-09-28T21:33:32.990Z,98506.39
2022-09-28T21:38:38.710Z,98508.83
2022-09-28T21:43:41.580Z,98504.63
2022-09-28T21:48:44.299Z,98498.96
2022-09-28T21:53:49.226Z,98493.48
2022-09-28T21:58:52.270Z,98494.06
2022-09-28T22:03:56.848Z,98490.96
2022-09-28T22:08:59.613Z,98499.18
2022-09-28T22:14:02.314Z,98497.48
2022-09-28T22:19:05.122Z,98498.99
2022-09-28T22:24:08.040Z,98498.62
2022-09-28T22:29:11.290Z,98495.98
2022-09-28T22:34:13.993Z,98502.91
2022-09-28T22:39:16.704Z,98501.17
2022-09-28T22:44:20.261Z,98504.55
2022-09-28T22:49:23.867Z,98503.36
2022-09-28T22:54:26.604Z,98502.15
2022-09-28T22:59:29.685Z,98504.45
2022-09-28T23:04:32.387Z,98504.04
2022-09-28T23:09:35.137Z,98498.30
2022-09-28T23:14:37.925Z,98497.73
2022-09-28T23:19:40.659Z,98494.23
2022-09-28T23:24:43.378Z,98497.70
2022-09-28T23:29:49.174Z,98495.24
2022-09-28T23:34:51.964Z,98500.20
2022-09-28T23:39:54.657Z,98505.84
2022-09-28T23:44:57.448Z,98506.77
2022-09-28T23:50:00.190Z,98503.30
2022-09-28T23:55:03.824Z,98509.41
